Time,TemperatureF,DewpointF,PressureIn,WindDirection,WindDirectionDegrees,WindSpeedMPH,WindSpeedGustMPH,Humidity,HourlyPrecipIn,Conditions,Clouds,dailyrainin,SoftwareType,DateUTC
2013-02-14 00:01:00,39.7,23.1,29.63,South,180,1.6,3.5,51,0.00,CLR,FEW,0.00,WeatherDisplay:10.37,2013-02-14 06:01:00,
2013-02-14 00:06:00,39.9,27.9,29.63,South,180,3.1,5.4,62,0.00,CLR,FEW,0.00,WeatherDisplay:10.37,2013-02-14 06:06:00,
2013-02-14 00:12:00,39.9,23.2,29.63,SW,225,2.2,5.8,51,0.00,CLR,FEW,0.00,WeatherDisplay:10.37,2013-02-14 06:12:00,
2013-02-14 00:17:00,40.1,23.4,29.63,East,90,2.2,8.1,51,0.00,CLR,FEW,0.00,WeatherDisplay:10.37,2013-02-14 06:17:00,
2013-02-14 00:23:00,40.3,28.3,29.63,SW,225,3.1,6.0,62,0.00,CLR,FEW,0.00,WeatherDisplay:10.37,2013-02-14 06:23:00,
2013-02-14 00:29:00,40.3,23.6,29.62,South,180,0.7,3.5,51,0.00,CLR,FEW,0.00,WeatherDisplay:10.37,2013-02-14 06:29:00,
2013-02-14 00:34:00,40.3,23.6,29.62,South,180,0.7,2.3,51,0.00,CLR,FEW,0.00,WeatherDisplay:10.37,2013-02-14 06:34:00,
2013-02-14 00:40:00,40.1,23.4,29.62,SW,225,2.2,5.8,51,0.00,CLR,FEW,0.00,WeatherDisplay:10.37,2013-02-14 06:40:00,
2013-02-14 00:45:00,40.3,23.6,29.62,South,180,0.7,5.8,51,0.00,CLR,FEW,0.00,WeatherDisplay:10.37,2013-02-14 06:45:00,
2013-02-14 00:51:00,40.5,28.1,29.62,South,180,2.2,5.8,61,0.00,CLR,FEW,0.00,WeatherDisplay:10.37,2013-02-14 06:51:00,
2013-02-14 00:57:00,40.5,23.7,29.62,South,180,1.6,4.6,51,0.00,CLR,FEW,0.00,WeatherDisplay:10.37,2013-02-14 06:57:00,
2013-02-14 01:02:00,40.5,22.8,29.61,SW,225,1.6,3.5,49,0.00,OVC,FEW,0.00,WeatherDisplay:10.37,2013-02-14 07:02:00,
2013-02-14 01:08:00,40.5,28.1,29.62,SW,225,2.2,4.5,61,0.00,OVC,FEW,0.00,WeatherDisplay:10.37,2013-02-14 07:08:00,
2013-02-14 01:13:00,40.5,28.1,29.61,SW,225,3.1,5.8,61,0.00,OVC,FEW,0.00,WeatherDisplay:10.37,2013-02-14 07:13:00,
2013-02-14 01:19:00,40.6,22.9,29.62,SSW,202,2.2,5.8,49,0.00,OVC,FEW,0.00,WeatherDisplay:10.37,2013-02-14 07:19:00,
2013-02-14 01:25:00,40.6,22.9,29.61,South,180,3.1,5.8,49,0.00,OVC,FEW,0.00,WeatherDisplay:10.37,2013-02-14 07:25:00,
2013-02-14 01:30:00,40.5,22.8,29.61,SW,225,3.1,8.1,49,0.00,OVC,FEW,0.00,WeatherDisplay:10.37,2013-02-14 07:30:00,
2013-02-14 01:36:00,40.5,22.8,29.62,SW,225,0.7,4.6,49,0.00,OVC,FEW,0.00,WeatherDisplay:10.37,2013-02-14 07:36:00,
2013-02-14 01:41:00,40.3,28.7,29.62,South,180,4.5,8.3,63,0.00,OVC,FEW,0.00,WeatherDisplay:10.37,2013-02-14 07:41:00,
2013-02-14 01:47:00,40.1,22.4,29.61,SE,135,1.6,5.8,49,0.00,OVC,FEW,0.00,WeatherDisplay:10.37,2013-02-14 07:47:00,
2013-02-14 01:53:00,39.9,22.3,29.61,South,180,2.2,4.6,49,0.00,OVC,FEW,0.00,WeatherDisplay:10.37,2013-02-14 07:53:00,
2013-02-14 01:58:00,39.7,28.5,29.62,South,180,3.8,6.9,64,0.00,OVC,FEW,0.00,WeatherDisplay:10.37,2013-02-14 07:58:00,
2013-02-14 02:04:00,39.7,20.6,29.62,SW,225,5.4,10.4,46,0.00,OVC,FEW,0.00,WeatherDisplay:10.37,2013-02-14 08:04:00,
2013-02-14 02:09:00,39.2,20.1,29.62,South,180,2.2,10.4,46,0.00,OVC,FEW,0.00,WeatherDisplay:10.37,2013-02-14 08:09:00,
2013-02-14 02:15:00,39.0,28.2,29.62,SW,225,3.1,5.8,65,0.00,OVC,FEW,0.00,WeatherDisplay:10.37,2013-02-14 08:15:00,
2013-02-14 02:21:00,38.7,19.6,29.62,South,180,3.8,6.9,46,0.00,OVC,FEW,0.00,WeatherDisplay:10.37,2013-02-14 08:21:00,
2013-02-14 02:26:00,38.5,28.1,29.62,SW,225,1.6,3.5,66,0.00,OVC,FEW,0.00,WeatherDisplay:10.37,2013-02-14 08:26:00,
2013-02-14 02:32:00,38.3,19.3,29.62,SW,225,2.2,5.8,46,0.00,OVC,FEW,0.00,WeatherDisplay:10.37,2013-02-14 08:32:00,
2013-02-14 02:37:00,38.1,19.1,29.62,South,180,1.6,4.6,46,0.00,OVC,FEW,0.00,WeatherDisplay:10.37,2013-02-14 08:37:00,
2013-02-14 02:43:00,38.1,19.1,29.62,SW,225,3.1,5.8,46,0.00,OVC,FEW,0.00,WeatherDisplay:10.37,2013-02-14 08:43:00,
2013-02-14 02:49:00,38.3,19.3,29.62,SE,135,1.6,8.1,46,0.00,OVC,FEW,0.00,WeatherDisplay:10.37,2013-02-14 08:49:00,
2013-02-14 02:54:00,38.1,19.1,29.62,SSE,158,1.6,3.5,46,0.00,OVC,FEW,0.00,WeatherDisplay:10.37,2013-02-14 08:54:00,
2013-02-14 03:00:00,37.9,19.0,29.61,SW,225,1.6,5.8,46,0.00,OVC,FEW,0.00,WeatherDisplay:10.37,2013-02-14 09:00:00,
2013-02-14 03:05:00,37.9,22.8,29.61,South,180,2.2,5.8,54,0.00,OVC,FEW,0.00,WeatherDisplay:10.37,2013-02-14 09:05:00,
2013-02-14 03:11:00,37.6,22.4,29.61,West,270,0.7,3.5,54,0.00,OVC,FEW,0.00,WeatherDisplay:10.37,2013-02-14 09:11:00,
2013-02-14 03:17:00,37.2,22.1,29.61,West,270,1.6,3.5,54,0.00,OVC,FEW,0.00,WeatherDisplay:10.37,2013-02-14 09:17:00,
2013-02-14 03:22:00,37.2,22.1,29.62,South,180,3.1,6.9,54,0.00,OVC,FEW,0.00,WeatherDisplay:10.37,2013-02-14 09:22:00,
2013-02-14 03:28:00,37.0,21.9,29.61,South,180,1.6,3.5,54,0.00,OVC,FEW,0.00,WeatherDisplay:10.37,2013-02-14 09:28:00,
2013-02-14 03:33:00,36.9,27.6,29.62,SW,225,0.7,3.5,69,0.00,OVC,FEW,0.00,WeatherDisplay:10.37,2013-02-14 09:33:00,
2013-02-14 03:39:00,36.9,21.7,29.61,NW,315,1.6,3.5,54,0.00,OVC,FEW,0.00,WeatherDisplay:10.37,2013-02-14 09:39:00,
2013-02-14 03:45:00,36.9,27.6,29.61,SW,225,2.2,5.8,69,0.00,OVC,FEW,0.00,WeatherDisplay:10.37,2013-02-14 09:45:00,
2013-02-14 03:50:00,37.0,21.9,29.61,WSW,248,1.6,4.6,54,0.00,OVC,FEW,0.00,WeatherDisplay:10.37,2013-02-14 09:50:00,
2013-02-14 03:56:00,37.0,27.8,29.61,SE,135,1.6,3.8,69,0.00,OVC,FEW,0.00,WeatherDisplay:10.37,2013-02-14 09:56:00,
2013-02-14 04:02:00,37.0,23.2,29.62,SW,225,0.7,3.5,57,0.00,CLR,FEW,0.00,WeatherDisplay:10.37,2013-02-14 10:02:00,
2013-02-14 04:07:00,37.6,23.7,29.62,SW,225,2.2,4.6,57,0.00,CLR,FEW,0.00,WeatherDisplay:10.37,2013-02-14 10:07:00,
2013-02-14 04:13:00,37.9,24.0,29.62,West,270,2.2,5.8,57,0.00,CLR,FEW,0.00,WeatherDisplay:10.37,2013-02-14 10:13:00,
2013-02-14 04:18:00,38.1,24.2,29.62,SW,225,1.6,5.8,57,0.00,CLR,FEW,0.00,WeatherDisplay:10.37,2013-02-14 10:18:00,
2013-02-14 04:24:00,37.9,24.0,29.62,NW,315,3.1,5.8,57,0.00,CLR,FEW,0.00,WeatherDisplay:10.37,2013-02-14 10:24:00,
2013-02-14 04:29:00,38.1,24.2,29.62,SW,225,3.1,6.9,57,0.00,CLR,FEW,0.00,WeatherDisplay:10.37,2013-02-14 10:29:00,
2013-02-14 04:35:00,37.8,23.9,29.62,NW,315,1.6,5.8,57,0.00,CLR,FEW,0.00,WeatherDisplay:10.37,2013-02-14 10:35:00,
2013-02-14 04:41:00,37.8,23.9,29.62,West,270,1.6,4.6,57,0.00,CLR,FEW,0.00,WeatherDisplay:10.37,2013-02-14 10:41:00,
2013-02-14 04:46:00,37.6,23.7,29.63,NW,315,1.6,4.6,57,0.00,CLR,FEW,0.00,WeatherDisplay:10.37,2013-02-14 10:46:00,
2013-02-14 04:52:00,37.4,23.5,29.63,West,270,1.6,4.6,57,0.00,CLR,FEW,0.00,WeatherDisplay:10.37,2013-02-14 10:52:00,
2013-02-14 04:58:00,37.2,23.4,29.63,West,270,2.2,5.8,57,0.00,CLR,FEW,0.00,WeatherDisplay:10.37,2013-02-14 10:58:00,
2013-02-14 05:03:00,37.0,28.8,29.63,SW,225,2.2,4.6,72,0.00,CLR,FEW,0.00,WeatherDisplay:10.37,2013-02-14 11:03:00,
2013-02-14 05:09:00,36.9,28.7,29.63,NW,315,3.1,8.3,72,0.00,CLR,FEW,0.00,WeatherDisplay:10.37,2013-02-14 11:09:00,
2013-02-14 05:14:00,36.9,23.0,29.63,SW,225,3.8,8.1,57,0.00,CLR,FEW,0.00,WeatherDisplay:10.37,2013-02-14 11:14:00,
2013-02-14 05:20:00,36.9,23.0,29.64,SW,225,2.2,6.9,57,0.00,CLR,FEW,0.00,WeatherDisplay:10.37,2013-02-14 11:20:00,
2013-02-14 05:25:00,36.9,29.0,29.64,NW,315,1.6,5.8,73,0.00,CLR,FEW,0.00,WeatherDisplay:10.37,2013-02-14 11:25:00,
2013-02-14 05:31:00,36.9,23.0,29.64,SW,225,2.2,6.9,57,0.00,CLR,FEW,0.00,WeatherDisplay:10.37,2013-02-14 11:31:00,
2013-02-14 05:37:00,37.0,23.2,29.63,SSW,202,3.8,8.1,57,0.00,CLR,FEW,0.00,WeatherDisplay:10.37,2013-02-14 11:37:00,
2013-02-14 05:42:00,37.0,29.5,29.64,SW,225,1.6,4.6,74,0.00,CLR,FEW,0.00,WeatherDisplay:10.37,2013-02-14 11:42:00,
2013-02-14 05:48:00,37.2,23.4,29.64,NW,315,2.2,9.2,57,0.00,CLR,FEW,0.00,WeatherDisplay:10.37,2013-02-14 11:48:00,
2013-02-14 05:53:00,37.2,29.0,29.64,West,270,2.2,6.9,72,0.00,CLR,FEW,0.00,WeatherDisplay:10.37,2013-02-14 11:53:00,
2013-02-14 05:59:00,37.2,29.0,29.64,West,270,2.2,5.8,72,0.00,CLR,FEW,0.00,WeatherDisplay:10.37,2013-02-14 11:59:00,
2013-02-14 06:05:00,37.0,28.8,29.64,SW,225,2.2,8.1,72,0.00,BKN,FEW,0.00,WeatherDisplay:10.37,2013-02-14 12:05:00,
2013-02-14 06:10:00,37.0,28.8,29.63,South,180,2.2,6.9,72,0.00,BKN,FEW,0.00,WeatherDisplay:10.37,2013-02-14 12:10:00,
2013-02-14 06:16:00,37.0,26.4,29.63,West,270,2.2,5.8,65,0.00,BKN,FEW,0.00,WeatherDisplay:10.37,2013-02-14 12:16:00,
2013-02-14 06:22:00,37.2,29.0,29.64,NW,315,3.1,12.7,72,0.00,BKN,FEW,0.00,WeatherDisplay:10.37,2013-02-14 12:22:00,
2013-02-14 06:27:00,37.4,29.2,29.64,SW,225,2.2,9.2,72,0.00,BKN,FEW,0.00,WeatherDisplay:10.37,2013-02-14 12:27:00,
2013-02-14 06:33:00,37.2,29.0,29.64,SW,225,1.6,6.9,72,0.00,BKN,FEW,0.00,WeatherDisplay:10.37,2013-02-14 12:33:00,
2013-02-14 06:38:00,37.2,29.0,29.65,NW,315,2.2,10.4,72,0.00,BKN,FEW,0.00,WeatherDisplay:10.37,2013-02-14 12:38:00,
2013-02-14 06:44:00,37.2,26.5,29.65,North,0,3.1,9.2,65,0.00,BKN,FEW,0.00,WeatherDisplay:10.37,2013-02-14 12:44:00,
2013-02-14 06:49:00,37.0,28.8,29.65,West,270,3.1,8.1,72,0.00,BKN,FEW,0.00,WeatherDisplay:10.37,2013-02-14 12:49:00,
2013-02-14 06:55:00,37.0,26.4,29.65,West,270,3.1,8.1,65,0.00,BKN,FEW,0.00,WeatherDisplay:10.37,2013-02-14 12:55:00,
2013-02-14 07:01:00,37.0,26.4,29.66,NW,315,2.2,10.4,65,0.00,BKN,FEW,0.00,WeatherDisplay:10.37,2013-02-14 13:01:00,
2013-02-14 07:06:00,36.9,26.6,29.66,NW,315,3.8,8.1,66,0.00,OVC,FEW,0.00,WeatherDisplay:10.37,2013-02-14 13:06:00,
2013-02-14 07:12:00,36.9,26.6,29.67,NW,315,3.8,6.9,66,0.00,OVC,FEW,0.00,WeatherDisplay:10.37,2013-02-14 13:12:00,
2013-02-14 07:17:00,36.5,28.3,29.67,NW,315,3.1,6.9,72,0.00,OVC,FEW,0.00,WeatherDisplay:10.37,2013-02-14 13:17:00,
2013-02-14 07:23:00,36.5,27.6,29.67,West,270,3.8,9.2,70,0.00,OVC,FEW,0.00,WeatherDisplay:10.37,2013-02-14 13:23:00,
2013-02-14 07:29:00,36.5,26.9,29.68,West,270,5.4,9.2,68,0.00,OVC,FEW,0.00,WeatherDisplay:10.37,2013-02-14 13:29:00,
2013-02-14 07:34:00,36.5,26.2,29.68,West,270,6.0,10.4,66,0.00,OVC,FEW,0.00,WeatherDisplay:10.37,2013-02-14 13:34:00,
2013-02-14 07:40:00,36.3,26.0,29.69,NW,315,2.2,5.8,66,0.00,OVC,FEW,0.00,WeatherDisplay:10.37,2013-02-14 13:40:00,
2013-02-14 07:45:00,36.3,26.8,29.69,West,270,3.1,6.9,68,0.00,OVC,FEW,0.00,WeatherDisplay:10.37,2013-02-14 13:45:00,
2013-02-14 07:51:00,36.1,25.9,29.69,West,270,3.8,8.1,66,0.00,OVC,FEW,0.00,WeatherDisplay:10.37,2013-02-14 13:51:00,
2013-02-14 07:57:00,36.3,26.0,29.69,NW,315,2.2,5.8,66,0.00,OVC,FEW,0.00,WeatherDisplay:10.37,2013-02-14 13:57:00,
2013-02-14 08:02:00,36.3,27.1,29.69,NW,315,3.8,11.5,69,0.00,OVC,FEW,0.00,WeatherDisplay:10.37,2013-02-14 14:02:00,
2013-02-14 08:08:00,36.3,26.8,29.69,SW,225,3.1,10.4,68,0.00,OVC,FEW,0.00,WeatherDisplay:10.37,2013-02-14 14:08:00,
2013-02-14 08:13:00,36.3,26.0,29.70,NW,315,2.2,6.9,66,0.00,OVC,FEW,0.00,WeatherDisplay:10.37,2013-02-14 14:13:00,
2013-02-14 08:19:00,36.3,26.8,29.70,NW,315,3.1,8.1,68,0.00,OVC,FEW,0.00,WeatherDisplay:10.37,2013-02-14 14:19:00,
2013-02-14 08:25:00,36.3,26.0,29.70,North,0,3.8,8.1,66,0.00,OVC,FEW,0.00,WeatherDisplay:10.37,2013-02-14 14:25:00,
2013-02-14 08:30:00,36.3,26.0,29.70,West,270,4.5,8.1,66,0.00,OVC,FEW,0.00,WeatherDisplay:10.37,2013-02-14 14:30:00,
2013-02-14 08:36:00,36.3,26.0,29.70,SW,225,2.2,6.0,66,0.00,OVC,FEW,0.00,WeatherDisplay:10.37,2013-02-14 14:36:00,
2013-02-14 08:41:00,36.3,26.0,29.71,West,270,2.2,4.6,66,0.00,OVC,FEW,0.00,WeatherDisplay:10.37,2013-02-14 14:41:00,
2013-02-14 08:47:00,36.1,25.9,29.72,SW,225,2.2,8.1,66,0.00,OVC,FEW,0.00,WeatherDisplay:10.37,2013-02-14 14:47:00,
2013-02-14 08:53:00,36.3,27.8,29.72,West,270,3.1,8.1,71,0.00,OVC,FEW,0.00,WeatherDisplay:10.37,2013-02-14 14:53:00,
2013-02-14 08:58:00,36.3,26.0,29.72,SW,225,1.6,5.8,66,0.00,OVC,FEW,0.00,WeatherDisplay:10.37,2013-02-14 14:58:00,
2013-02-14 09:04:00,36.3,24.9,29.72,West,270,3.8,5.8,63,0.00,OVC,FEW,0.00,WeatherDisplay:10.37,2013-02-14 15:04:00,
2013-02-14 09:09:00,36.3,24.9,29.72,NW,315,5.4,9.2,63,0.00,OVC,FEW,0.00,WeatherDisplay:10.37,2013-02-14 15:09:00,
2013-02-14 09:15:00,36.5,25.1,29.72,West,270,3.1,6.9,63,0.00,OVC,FEW,0.00,WeatherDisplay:10.37,2013-02-14 15:15:00,
2013-02-14 09:21:00,36.5,28.0,29.73,South,180,3.1,6.9,71,0.00,OVC,FEW,0.00,WeatherDisplay:10.37,2013-02-14 15:21:00,
2013-02-14 09:26:00,36.5,25.1,29.73,NW,315,2.2,8.1,63,0.00,OVC,FEW,0.00,WeatherDisplay:10.37,2013-02-14 15:26:00,
2013-02-14 09:32:00,36.7,25.3,29.73,NW,315,4.5,8.1,63,0.00,OVC,FEW,0.00,WeatherDisplay:10.37,2013-02-14 15:32:00,
2013-02-14 09:37:00,36.7,28.2,29.74,NW,315,3.8,6.9,71,0.00,OVC,FEW,0.00,WeatherDisplay:10.37,2013-02-14 15:37:00,
2013-02-14 09:43:00,36.9,25.4,29.74,NW,315,2.2,5.8,63,0.00,OVC,FEW,0.00,WeatherDisplay:10.37,2013-02-14 15:43:00,
2013-02-14 09:49:00,36.9,25.4,29.74,SW,225,5.4,13.0,63,0.00,OVC,FEW,0.00,WeatherDisplay:10.37,2013-02-14 15:49:00,
2013-02-14 09:54:00,36.9,25.4,29.74,West,270,2.2,5.8,63,0.00,OVC,FEW,0.00,WeatherDisplay:10.37,2013-02-14 15:54:00,
2013-02-14 10:00:00,37.0,28.2,29.75,SW,225,3.1,6.0,70,0.00,OVC,FEW,0.00,WeatherDisplay:10.37,2013-02-14 16:00:00,
2013-02-14 10:06:00,37.0,28.2,29.75,West,270,2.2,5.4,70,0.00,OVC,FEW,0.00,WeatherDisplay:10.37,2013-02-14 16:06:00,
2013-02-14 10:11:00,37.0,24.4,29.75,West,270,4.5,10.4,60,0.00,OVC,FEW,0.00,WeatherDisplay:10.37,2013-02-14 16:11:00,
2013-02-14 10:17:00,37.2,28.0,29.76,NW,315,3.8,6.9,69,0.00,OVC,FEW,0.00,WeatherDisplay:10.37,2013-02-14 16:17:00,
2013-02-14 10:22:00,37.2,24.6,29.76,NW,315,5.4,12.7,60,0.00,OVC,FEW,0.00,WeatherDisplay:10.37,2013-02-14 16:22:00,
2013-02-14 10:28:00,37.2,24.6,29.76,SW,225,3.1,5.8,60,0.00,OVC,FEW,0.00,WeatherDisplay:10.37,2013-02-14 16:28:00,
2013-02-14 10:33:00,37.4,27.8,29.77,North,0,4.5,13.8,68,0.00,OVC,FEW,0.00,WeatherDisplay:10.37,2013-02-14 16:33:00,
2013-02-14 10:39:00,37.4,24.8,29.77,NW,315,4.5,12.7,60,0.00,OVC,FEW,0.00,WeatherDisplay:10.37,2013-02-14 16:39:00,
2013-02-14 10:45:00,37.8,27.0,29.77,NW,315,4.5,8.3,65,0.00,OVC,FEW,0.00,WeatherDisplay:10.37,2013-02-14 16:45:00,
2013-02-14 10:50:00,38.3,25.6,29.77,NW,315,5.4,10.4,60,0.00,OVC,FEW,0.00,WeatherDisplay:10.37,2013-02-14 16:50:00,
2013-02-14 10:56:00,38.5,27.0,29.77,South,180,6.0,16.1,63,0.00,OVC,FEW,0.00,WeatherDisplay:10.37,2013-02-14 16:56:00,
2013-02-14 11:01:00,38.7,26.0,29.78,West,270,3.1,5.8,60,0.00,OVC,FEW,0.00,WeatherDisplay:10.37,2013-02-14 17:01:00,
2013-02-14 11:07:00,39.0,26.3,29.78,West,270,6.0,12.7,60,0.00,OVC,FEW,0.00,WeatherDisplay:10.37,2013-02-14 17:07:00,
2013-02-14 11:13:00,39.0,26.7,29.79,West,270,4.5,10.4,61,0.00,OVC,FEW,0.00,WeatherDisplay:10.37,2013-02-14 17:13:00,
2013-02-14 11:18:00,38.7,26.0,29.79,NW,315,6.0,12.7,60,0.00,OVC,FEW,0.00,WeatherDisplay:10.37,2013-02-14 17:18:00,
2013-02-14 11:24:00,39.0,26.3,29.79,NW,315,6.0,10.4,60,0.00,OVC,FEW,0.00,WeatherDisplay:10.37,2013-02-14 17:24:00,
2013-02-14 11:29:00,40.1,27.7,29.79,NW,315,3.8,8.1,61,0.00,OVC,FEW,0.00,WeatherDisplay:10.37,2013-02-14 17:29:00,
2013-02-14 11:35:00,40.3,27.5,29.79,West,270,5.4,11.5,60,0.00,OVC,FEW,0.00,WeatherDisplay:10.37,2013-02-14 17:35:00,
2013-02-14 11:41:00,39.7,26.2,29.79,NW,315,6.0,11.5,58,0.00,OVC,FEW,0.00,WeatherDisplay:10.37,2013-02-14 17:41:00,
2013-02-14 11:46:00,39.9,25.5,29.78,NW,315,6.9,10.7,56,0.00,OVC,FEW,0.00,WeatherDisplay:10.37,2013-02-14 17:46:00,
2013-02-14 11:52:00,40.3,26.2,29.78,NW,315,3.8,12.7,57,0.00,OVC,FEW,0.00,WeatherDisplay:10.37,2013-02-14 17:52:00,
2013-02-14 11:57:00,40.6,26.2,29.78,North,0,8.3,14.5,56,0.00,OVC,FEW,0.00,WeatherDisplay:10.37,2013-02-14 17:57:00,
2013-02-14 12:03:00,41.2,25.8,29.78,North,0,4.5,12.7,54,0.00,BKN,FEW,0.00,WeatherDisplay:10.37,2013-02-14 18:03:00,
2013-02-14 12:09:00,41.9,26.4,29.78,West,270,6.0,12.7,54,0.00,BKN,FEW,0.00,WeatherDisplay:10.37,2013-02-14 18:09:00,
2013-02-14 12:14:00,41.5,26.1,29.78,WNW,292,4.5,13.8,54,0.00,BKN,FEW,0.00,WeatherDisplay:10.37,2013-02-14 18:14:00,
2013-02-14 12:20:00,42.1,26.6,29.78,NW,315,3.8,8.1,54,0.00,BKN,FEW,0.00,WeatherDisplay:10.37,2013-02-14 18:20:00,
2013-02-14 12:26:00,41.4,25.9,29.78,NW,315,6.0,12.7,54,0.00,BKN,FEW,0.00,WeatherDisplay:10.37,2013-02-14 18:26:00,
2013-02-14 12:31:00,41.0,26.1,29.78,West,270,5.4,12.7,55,0.00,BKN,FEW,0.00,WeatherDisplay:10.37,2013-02-14 18:31:00,
2013-02-14 12:37:00,41.2,26.7,29.79,NW,315,6.0,16.1,56,0.00,BKN,FEW,0.00,WeatherDisplay:10.37,2013-02-14 18:37:00,
2013-02-14 12:42:00,43.0,26.5,29.79,West,270,6.0,9.8,52,0.00,BKN,FEW,0.00,WeatherDisplay:10.37,2013-02-14 18:42:00,
2013-02-14 12:48:00,41.5,26.1,29.80,NNW,338,9.2,17.3,54,0.00,BKN,FEW,0.00,WeatherDisplay:10.37,2013-02-14 18:48:00,
2013-02-14 12:53:00,41.5,25.7,29.80,NW,315,3.1,17.3,53,0.00,BKN,FEW,0.00,WeatherDisplay:10.37,2013-02-14 18:53:00,
2013-02-14 12:59:00,41.4,25.9,29.80,WNW,292,8.3,17.3,54,0.00,BKN,FEW,0.00,WeatherDisplay:10.37,2013-02-14 18:59:00,
2013-02-14 13:05:00,42.4,26.0,29.80,West,270,3.1,10.4,52,0.00,BKN,FEW,0.00,WeatherDisplay:10.37,2013-02-14 19:05:00,
2013-02-14 13:10:00,42.3,24.9,29.81,NW,315,6.0,17.3,50,0.00,BKN,FEW,0.00,WeatherDisplay:10.37,2013-02-14 19:10:00,
2013-02-14 13:16:00,42.3,25.9,29.81,North,0,3.1,8.1,52,0.00,BKN,FEW,0.00,WeatherDisplay:10.37,2013-02-14 19:16:00,
2013-02-14 13:21:00,41.5,23.8,29.81,NW,315,4.5,10.4,49,0.00,BKN,FEW,0.00,WeatherDisplay:10.37,2013-02-14 19:21:00,
2013-02-14 13:27:00,41.7,23.9,29.81,NW,315,5.4,9.2,49,0.00,BKN,FEW,0.00,WeatherDisplay:10.37,2013-02-14 19:27:00,
2013-02-14 13:33:00,41.2,23.4,29.81,West,270,5.4,10.4,49,0.00,BKN,FEW,0.00,WeatherDisplay:10.37,2013-02-14 19:33:00,
2013-02-14 13:38:00,40.6,22.9,29.81,WSW,248,3.8,12.7,49,0.00,BKN,FEW,0.00,WeatherDisplay:10.37,2013-02-14 19:38:00,
2013-02-14 13:44:00,41.0,24.7,29.82,NW,315,6.0,12.7,52,0.00,BKN,FEW,0.00,WeatherDisplay:10.37,2013-02-14 19:44:00,
2013-02-14 13:49:00,40.1,22.0,29.81,North,0,6.9,13.7,48,0.00,BKN,FEW,0.00,WeatherDisplay:10.37,2013-02-14 19:49:00,
2013-02-14 13:55:00,39.9,23.7,29.82,NW,315,6.9,11.5,52,0.00,BKN,FEW,0.00,WeatherDisplay:10.37,2013-02-14 19:55:00,
2013-02-14 14:01:00,39.9,21.8,29.82,West,270,5.4,12.7,48,0.00,BKN,FEW,0.00,WeatherDisplay:10.37,2013-02-14 20:01:00,
2013-02-14 14:06:00,40.3,22.6,29.82,SW,225,4.5,8.1,49,0.00,BKN,FEW,0.00,WeatherDisplay:10.37,2013-02-14 20:06:00,
2013-02-14 14:12:00,40.6,21.4,29.82,SW,225,5.4,12.7,46,0.00,BKN,FEW,0.00,WeatherDisplay:10.37,2013-02-14 20:12:00,
2013-02-14 14:18:00,40.6,21.4,29.82,NW,315,8.3,12.7,46,0.00,BKN,FEW,0.00,WeatherDisplay:10.37,2013-02-14 20:18:00,
2013-02-14 14:23:00,40.8,22.1,29.82,SW,225,2.2,6.9,47,0.00,BKN,FEW,0.00,WeatherDisplay:10.37,2013-02-14 20:23:00,
2013-02-14 14:29:00,40.5,21.3,29.82,North,0,9.2,17.3,46,0.00,BKN,FEW,0.00,WeatherDisplay:10.37,2013-02-14 20:29:00,
2013-02-14 14:34:00,42.4,23.1,29.82,NW,315,2.2,10.4,46,0.00,BKN,FEW,0.00,WeatherDisplay:10.37,2013-02-14 20:34:00,
2013-02-14 14:40:00,43.2,23.8,29.82,NW,315,3.1,15.0,46,0.00,BKN,FEW,0.00,WeatherDisplay:10.37,2013-02-14 20:40:00,
2013-02-14 14:46:00,42.4,23.1,29.83,West,270,3.1,10.4,46,0.00,BKN,FEW,0.00,WeatherDisplay:10.37,2013-02-14 20:46:00,
2013-02-14 14:51:00,41.7,22.4,29.83,NW,315,6.0,10.4,46,0.00,BKN,FEW,0.00,WeatherDisplay:10.37,2013-02-14 20:51:00,
2013-02-14 14:57:00,41.2,21.9,29.83,NW,315,2.2,4.6,46,0.00,BKN,FEW,0.00,WeatherDisplay:10.37,2013-02-14 20:57:00,
2013-02-14 15:02:00,41.5,22.3,29.84,West,270,4.5,10.7,46,0.00,FEW,,0.00,WeatherDisplay:10.37,2013-02-14 21:02:00,
2013-02-14 15:08:00,42.6,21.1,29.84,West,270,3.8,10.4,42,0.00,FEW,,0.00,WeatherDisplay:10.37,2013-02-14 21:08:00,
2013-02-14 15:13:00,42.4,20.9,29.84,NW,315,3.8,8.1,42,0.00,FEW,,0.00,WeatherDisplay:10.37,2013-02-14 21:13:00,
2013-02-14 15:19:00,41.2,21.9,29.84,NW,315,3.8,12.7,46,0.00,FEW,,0.00,WeatherDisplay:10.37,2013-02-14 21:19:00,
2013-02-14 15:25:00,41.2,19.8,29.85,West,270,4.5,8.1,42,0.00,FEW,,0.00,WeatherDisplay:10.37,2013-02-14 21:25:00,
2013-02-14 15:30:00,41.0,22.8,29.85,SW,225,1.6,3.8,48,0.00,FEW,,0.00,WeatherDisplay:10.37,2013-02-14 21:30:00,
2013-02-14 15:36:00,40.8,19.5,29.85,SW,225,4.5,8.3,42,0.00,FEW,,0.00,WeatherDisplay:10.37,2013-02-14 21:36:00,
2013-02-14 15:41:00,40.5,22.8,29.85,SW,225,4.5,9.2,49,0.00,FEW,,0.00,WeatherDisplay:10.37,2013-02-14 21:41:00,
2013-02-14 15:47:00,40.3,19.0,29.85,North,0,2.2,5.8,42,0.00,FEW,,0.00,WeatherDisplay:10.37,2013-02-14 21:47:00,
2013-02-14 15:53:00,40.1,18.8,29.86,NW,315,2.2,3.5,42,0.00,FEW,,0.00,WeatherDisplay:10.37,2013-02-14 21:53:00,
2013-02-14 15:58:00,39.9,18.7,29.86,SW,225,1.6,4.6,42,0.00,FEW,,0.00,WeatherDisplay:10.37,2013-02-14 21:58:00,
2013-02-14 16:04:00,39.9,24.6,29.87,West,270,1.6,4.6,54,0.00,OVC,FEW,0.00,WeatherDisplay:10.37,2013-02-14 22:04:00,
2013-02-14 16:10:00,39.7,24.4,29.86,NW,315,2.2,4.6,54,0.00,OVC,FEW,0.00,WeatherDisplay:10.37,2013-02-14 22:10:00,
2013-02-14 16:15:00,39.7,24.0,29.87,West,270,0.0,3.5,53,0.00,OVC,FEW,0.00,WeatherDisplay:10.37,2013-02-14 22:15:00,
2013-02-14 16:21:00,39.6,24.3,29.88,SW,225,1.6,3.5,54,0.00,OVC,FEW,0.00,WeatherDisplay:10.37,2013-02-14 22:21:00,
2013-02-14 16:26:00,39.4,24.1,29.88,NW,315,0.7,3.5,54,0.00,OVC,FEW,0.00,WeatherDisplay:10.37,2013-02-14 22:26:00,
2013-02-14 16:32:00,39.6,24.3,29.87,West,270,1.6,2.3,54,0.00,OVC,FEW,0.00,WeatherDisplay:10.37,2013-02-14 22:32:00,
2013-02-14 16:38:00,39.7,25.3,29.87,West,270,0.7,3.5,56,0.00,OVC,FEW,0.00,WeatherDisplay:10.37,2013-02-14 22:38:00,
2013-02-14 16:43:00,39.6,24.3,29.88,North,0,0.0,3.5,54,0.00,OVC,FEW,0.00,WeatherDisplay:10.37,2013-02-14 22:43:00,
2013-02-14 16:49:00,39.4,25.0,29.88,West,270,1.6,5.8,56,0.00,OVC,FEW,0.00,WeatherDisplay:10.37,2013-02-14 22:49:00,
2013-02-14 16:54:00,39.2,23.9,29.88,West,270,1.6,5.8,54,0.00,OVC,FEW,0.00,WeatherDisplay:10.37,2013-02-14 22:54:00,
2013-02-14 17:00:00,39.0,23.8,29.89,SW,225,3.8,9.2,54,0.00,OVC,FEW,0.00,WeatherDisplay:10.37,2013-02-14 23:00:00,
2013-02-14 17:06:00,38.8,26.1,29.89,West,270,2.2,3.8,60,0.00,OVC,FEW,0.00,WeatherDisplay:10.37,2013-02-14 23:06:00,
2013-02-14 17:11:00,38.7,24.7,29.89,SW,225,1.6,5.8,57,0.00,OVC,FEW,0.00,WeatherDisplay:10.37,2013-02-14 23:11:00,
2013-02-14 17:17:00,38.5,24.6,29.89,North,0,0.7,3.5,57,0.00,OVC,FEW,0.00,WeatherDisplay:10.37,2013-02-14 23:17:00,
2013-02-14 17:22:00,38.3,26.0,29.89,West,270,0.7,2.3,61,0.00,OVC,FEW,0.00,WeatherDisplay:10.37,2013-02-14 23:22:00,
2013-02-14 17:28:00,38.3,24.4,29.89,West,270,1.6,6.9,57,0.00,OVC,FEW,0.00,WeatherDisplay:10.37,2013-02-14 23:28:00,
2013-02-14 17:34:00,38.3,26.4,29.88,NW,315,2.2,4.5,62,0.00,OVC,FEW,0.00,WeatherDisplay:10.37,2013-02-14 23:34:00,
2013-02-14 17:39:00,38.1,24.2,29.89,WSW,248,2.2,6.0,57,0.00,OVC,FEW,0.00,WeatherDisplay:10.37,2013-02-14 23:39:00,
2013-02-14 17:45:00,37.9,24.0,29.89,West,270,1.6,4.6,57,0.00,OVC,FEW,0.00,WeatherDisplay:10.37,2013-02-14 23:45:00,
2013-02-14 17:50:00,37.9,26.1,29.89,NW,315,2.2,5.8,62,0.00,OVC,FEW,0.00,WeatherDisplay:10.37,2013-02-14 23:50:00,
2013-02-14 17:56:00,37.8,23.9,29.89,West,270,1.6,4.6,57,0.00,OVC,FEW,0.00,WeatherDisplay:10.37,2013-02-14 23:56:00,
2013-02-14 18:02:00,37.6,23.7,29.90,West,270,1.6,3.5,57,0.00,OVC,FEW,0.00,WeatherDisplay:10.37,2013-02-15 00:02:00,
2013-02-14 18:07:00,37.4,23.5,29.90,NW,315,3.1,9.2,57,0.00,OVC,FEW,0.00,WeatherDisplay:10.37,2013-02-15 00:07:00,
2013-02-14 18:13:00,37.2,26.2,29.90,West,270,3.1,6.9,64,0.00,OVC,FEW,0.00,WeatherDisplay:10.37,2013-02-15 00:13:00,
2013-02-14 18:18:00,37.2,26.5,29.90,NW,315,1.6,3.8,65,0.00,OVC,FEW,0.00,WeatherDisplay:10.37,2013-02-15 00:18:00,
2013-02-14 18:24:00,37.2,23.4,29.91,NW,315,1.6,3.5,57,0.00,OVC,FEW,0.00,WeatherDisplay:10.37,2013-02-15 00:24:00,
2013-02-14 18:30:00,37.0,23.2,29.91,NW,315,1.6,3.5,57,0.00,OVC,FEW,0.00,WeatherDisplay:10.37,2013-02-15 00:30:00,
2013-02-14 18:35:00,36.9,23.0,29.91,NW,315,0.0,4.6,57,0.00,OVC,FEW,0.00,WeatherDisplay:10.37,2013-02-15 00:35:00,
2013-02-14 18:41:00,36.9,26.9,29.91,NW,315,3.1,3.1,67,0.00,OVC,FEW,0.00,WeatherDisplay:10.37,2013-02-15 00:41:00,
2013-02-14 18:46:00,36.7,27.1,29.92,West,270,2.2,3.8,68,0.00,OVC,FEW,0.00,WeatherDisplay:10.37,2013-02-15 00:46:00,
2013-02-14 18:52:00,36.5,22.7,29.92,NW,315,1.6,3.5,57,0.00,OVC,FEW,0.00,WeatherDisplay:10.37,2013-02-15 00:52:00,
2013-02-14 18:58:00,36.3,27.1,29.92,North,0,2.2,5.8,69,0.00,OVC,FEW,0.00,WeatherDisplay:10.37,2013-02-15 00:58:00,
2013-02-14 19:03:00,36.1,27.3,29.92,North,0,0.0,2.3,70,0.00,-SN,FEW,0.00,WeatherDisplay:10.37,2013-02-15 01:03:00,
2013-02-14 19:09:00,36.1,27.3,29.92,NW,315,1.6,3.5,70,0.00,-SN,FEW,0.00,WeatherDisplay:10.37,2013-02-15 01:09:00,
2013-02-14 19:14:00,36.0,27.8,29.92,West,270,0.7,3.8,72,0.00,-SN,FEW,0.00,WeatherDisplay:10.37,2013-02-15 01:14:00,
2013-02-14 19:20:00,35.8,26.9,29.92,NW,315,0.0,4.6,70,0.00,-SN,FEW,0.00,WeatherDisplay:10.37,2013-02-15 01:20:00,
2013-02-14 19:26:00,35.8,28.3,29.92,NW,315,1.6,4.6,74,0.00,-SN,FEW,0.00,WeatherDisplay:10.37,2013-02-15 01:26:00,
2013-02-14 19:31:00,35.6,26.8,29.92,NW,315,1.6,4.6,70,0.00,-SN,FEW,0.00,WeatherDisplay:10.37,2013-02-15 01:31:00,
2013-02-14 19:37:00,35.4,26.6,29.93,West,270,1.6,3.5,70,0.00,-SN,FEW,0.00,WeatherDisplay:10.37,2013-02-15 01:37:00,
2013-02-14 19:42:00,35.2,28.8,29.93,NW,315,2.2,5.8,77,0.00,-SN,FEW,0.00,WeatherDisplay:10.37,2013-02-15 01:42:00,
2013-02-14 19:48:00,35.2,26.4,29.93,North,0,2.2,4.6,70,0.00,-SN,FEW,0.00,WeatherDisplay:10.37,2013-02-15 01:48:00,
2013-02-14 19:54:00,35.1,28.9,29.93,North,0,1.6,3.8,78,0.00,-SN,FEW,0.00,WeatherDisplay:10.37,2013-02-15 01:54:00,
2013-02-14 19:59:00,34.9,29.0,29.93,NW,315,3.1,5.4,79,0.00,-SN,FEW,0.00,WeatherDisplay:10.37,2013-02-15 01:59:00,
2013-02-14 20:05:00,34.9,29.0,29.93,North,0,3.8,10.4,79,0.00,OVC,FEW,0.00,WeatherDisplay:10.37,2013-02-15 02:05:00,
2013-02-14 20:10:00,34.7,29.2,29.93,NW,315,2.2,5.4,80,0.00,OVC,FEW,0.00,WeatherDisplay:10.37,2013-02-15 02:10:00,
2013-02-14 20:16:00,34.5,27.7,29.93,NE,45,2.2,4.6,76,0.00,OVC,FEW,0.00,WeatherDisplay:10.37,2013-02-15 02:16:00,
2013-02-14 20:22:00,34.5,27.7,29.93,NW,315,1.6,3.5,76,0.00,OVC,FEW,0.00,WeatherDisplay:10.37,2013-02-15 02:22:00,
2013-02-14 20:27:00,34.3,27.6,29.93,NW,315,3.8,10.4,76,0.00,OVC,FEW,0.00,WeatherDisplay:10.37,2013-02-15 02:27:00,
2013-02-14 20:33:00,34.3,29.4,29.94,NW,315,3.1,8.1,82,0.00,OVC,FEW,0.00,WeatherDisplay:10.37,2013-02-15 02:33:00,
2013-02-14 20:38:00,34.2,29.2,29.93,NW,315,0.0,5.8,82,0.00,OVC,FEW,0.00,WeatherDisplay:10.37,2013-02-15 02:38:00,
2013-02-14 20:44:00,34.2,27.4,29.94,South,180,2.2,8.1,76,0.00,OVC,FEW,0.00,WeatherDisplay:10.37,2013-02-15 02:44:00,
2013-02-14 20:50:00,34.0,29.1,29.94,NW,315,1.6,5.4,82,0.00,OVC,FEW,0.00,WeatherDisplay:10.37,2013-02-15 02:50:00,
2013-02-14 20:55:00,33.8,28.9,29.94,NNE,16,3.8,6.9,82,0.00,OVC,FEW,0.00,WeatherDisplay:10.37,2013-02-15 02:55:00,
2013-02-14 21:01:00,33.8,28.9,29.95,NW,315,3.1,5.8,82,0.00,OVC,FEW,0.00,WeatherDisplay:10.37,2013-02-15 03:01:00,
2013-02-14 21:06:00,33.6,25.9,29.95,NW,315,3.1,6.9,73,0.00,OVC,FEW,0.00,WeatherDisplay:10.37,2013-02-15 03:06:00,
2013-02-14 21:12:00,33.4,25.7,29.95,NW,315,1.6,6.9,73,0.00,OVC,FEW,0.00,WeatherDisplay:10.37,2013-02-15 03:12:00,
2013-02-14 21:18:00,33.4,28.5,29.95,NW,315,2.2,6.9,82,0.00,OVC,FEW,0.00,WeatherDisplay:10.37,2013-02-15 03:18:00,
2013-02-14 21:23:00,33.3,25.5,29.95,NW,315,4.5,8.1,73,0.00,OVC,FEW,0.00,WeatherDisplay:10.37,2013-02-15 03:23:00,
2013-02-14 21:29:00,33.3,25.5,29.94,NW,315,3.1,9.2,73,0.00,OVC,FEW,0.00,WeatherDisplay:10.37,2013-02-15 03:29:00,
2013-02-14 21:34:00,33.4,25.7,29.95,NW,315,5.4,8.1,73,0.00,OVC,FEW,0.00,WeatherDisplay:10.37,2013-02-15 03:34:00,
2013-02-14 21:40:00,33.1,25.4,29.95,WNW,292,4.5,9.2,73,0.00,OVC,FEW,0.00,WeatherDisplay:10.37,2013-02-15 03:40:00,
2013-02-14 21:46:00,32.9,25.2,29.95,NW,315,4.5,8.1,73,0.00,OVC,FEW,0.00,WeatherDisplay:10.37,2013-02-15 03:46:00,
2013-02-14 21:51:00,32.9,25.2,29.95,NW,315,3.1,6.9,73,0.00,OVC,FEW,0.00,WeatherDisplay:10.37,2013-02-15 03:51:00,
2013-02-14 21:57:00,32.9,28.3,29.96,NW,315,3.1,6.0,83,0.00,OVC,FEW,0.00,WeatherDisplay:10.37,2013-02-15 03:57:00,
2013-02-14 22:02:00,32.5,28.0,29.96,West,270,0.7,2.3,83,0.00,BKN,FEW,0.00,WeatherDisplay:10.37,2013-02-15 04:02:00,
2013-02-14 22:08:00,32.4,27.8,29.96,West,270,2.2,3.1,83,0.00,BKN,FEW,0.00,WeatherDisplay:10.37,2013-02-15 04:08:00,
2013-02-14 22:14:00,32.4,27.8,29.96,NW,315,0.7,5.8,83,0.00,BKN,FEW,0.00,WeatherDisplay:10.37,2013-02-15 04:14:00,
2013-02-14 22:19:00,32.2,27.6,29.96,NW,315,2.2,6.0,83,0.00,BKN,FEW,0.00,WeatherDisplay:10.37,2013-02-15 04:19:00,
2013-02-14 22:25:00,32.0,27.4,29.96,NW,315,3.1,8.1,83,0.00,BKN,FEW,0.00,WeatherDisplay:10.37,2013-02-15 04:25:00,
2013-02-14 22:30:00,32.0,23.3,29.96,West,270,0.7,3.5,70,0.00,BKN,FEW,0.00,WeatherDisplay:10.37,2013-02-15 04:30:00,
2013-02-14 22:36:00,31.6,23.0,29.97,North,0,2.2,5.8,70,0.00,BKN,FEW,0.00,WeatherDisplay:10.37,2013-02-15 04:36:00,
2013-02-14 22:42:00,31.5,22.8,29.97,South,180,1.6,4.6,70,0.00,BKN,FEW,0.00,WeatherDisplay:10.37,2013-02-15 04:42:00,
2013-02-14 22:47:00,31.3,22.6,29.97,NW,315,2.2,4.6,70,0.00,BKN,FEW,0.00,WeatherDisplay:10.37,2013-02-15 04:47:00,
2013-02-14 22:53:00,31.1,22.5,29.97,West,270,1.6,3.5,70,0.00,BKN,FEW,0.00,WeatherDisplay:10.37,2013-02-15 04:53:00,
2013-02-14 22:58:00,30.9,26.1,29.97,West,270,3.1,5.8,82,0.00,BKN,FEW,0.00,WeatherDisplay:10.37,2013-02-15 04:58:00,
2013-02-14 23:00:00,30.9,22.3,29.97,West,270,3.1,5.8,70,0.00,BKN,FEW,0.00,WeatherDisplay:10.37,2013-02-15 05:00:00,
2013-02-14 23:01:00,30.9,26.1,29.98,NW,315,0.7,4.6,82,0.00,BKN,FEW,0.00,WeatherDisplay:10.37,2013-02-15 05:01:00,
2013-02-14 23:03:00,30.9,22.3,29.98,NW,315,0.7,4.6,70,0.00,BKN,FEW,0.00,WeatherDisplay:10.37,2013-02-15 05:03:00,
2013-02-14 23:09:00,30.7,25.9,29.98,SW,225,0.0,4.6,82,0.00,BKN,FEW,0.00,WeatherDisplay:10.37,2013-02-15 05:09:00,
2013-02-14 23:14:00,30.6,21.9,29.98,West,270,0.7,3.5,70,0.00,BKN,FEW,0.00,WeatherDisplay:10.37,2013-02-15 05:14:00,
2013-02-14 23:20:00,30.4,21.8,29.98,WNW,292,1.6,5.8,70,0.00,BKN,FEW,0.00,WeatherDisplay:10.37,2013-02-15 05:20:00,
2013-02-14 23:26:00,30.4,25.2,29.98,NW,315,0.7,3.5,81,0.00,BKN,FEW,0.00,WeatherDisplay:10.37,2013-02-15 05:26:00,
2013-02-14 23:31:00,30.2,25.1,29.98,NW,315,3.1,8.3,81,0.00,BKN,FEW,0.00,WeatherDisplay:10.37,2013-02-15 05:31:00,
2013-02-14 23:37:00,30.2,25.1,29.98,NW,315,3.1,8.3,81,0.00,BKN,FEW,0.00,WeatherDisplay:10.37,2013-02-15 05:37:00,
2013-02-14 23:42:00,30.0,24.3,29.98,WNW,292,2.2,6.9,79,0.00,BKN,FEW,0.00,WeatherDisplay:10.37,2013-02-15 05:42:00,
2013-02-14 23:48:00,30.0,24.3,29.98,NW,315,2.2,9.2,79,0.00,BKN,FEW,0.00,WeatherDisplay:10.37,2013-02-15 05:48:00,
2013-02-14 23:54:00,29.8,21.2,29.99,West,270,1.6,5.8,70,0.00,BKN,FEW,0.00,WeatherDisplay:10.37,2013-02-15 05:54:00,
2013-02-14 23:59:00,29.7,21.1,29.99,NW,315,1.6,3.5,70,0.00,BKN,FEW,0.00,WeatherDisplay:10.37,2013-02-15 05:59:00,